Airfield :
LOGIN :

Register | Disclaimer

   EN    FR    IT 

 










Legend :    VFR   Marginal VFR   IFR   Intensive IFR   Very Intensive IFR
Visi :
Ceiling :
>= 8 km
>= 3000ft
5 to 8 km
1000 to 3000 ft
1500m to 5 km
500 to 1000 ft
800 to 1500m
200 to 500 ft
< 800m
< 200 ft
Symbols :   Thunderstorms  Fog  Heavy snow  Heavy precipitations  Wind > 20 kt
SIGMETs :     Misc.  Thunderstorms  Icing  Turbulence  Mountain Waves  Volcanic Ashes






- Airport Elevation : 587 ft
- IATA code : XCR


LFOK - Chalons Vatry

CURRENT METAR :
  • 241430Z AUTO 20017KT 9999 BKN045 BKN060 BKN170 19/10 Q1002 TEMPO 21020G30KT 3000 SHRA BKN030CB

EXPIRED METARs :
  • 241400Z AUTO 18012KT 9999 SCT042 SCT054 BKN066 19/11 Q1003 TEMPO 3000 SHRA BKN030TCU
  • 241330Z AUTO 19013KT 9999 FEW041 BKN190 BKN210 19/11 Q1003 TEMPO 3000 SHRA BKN030TCU
  • 241300Z AUTO 21013KT 9999 FEW043 BKN200 BKN220 19/10 Q1004 TEMPO 3000 SHRA BKN030TCU
  • 241230Z AUTO 22014KT 9999 FEW039 BKN210 18/10 Q1004 TEMPO 3000 SHRA BKN030TCU
  • 241200Z AUTO 21015KT 9999 FEW038 BKN210 18/10 Q1005 TEMPO 3000 SHRA BKN030TCU

TAF TAF LFOK
Valid from the 24 at 12:00 until the 25 at 12:00 UTC


241100Z 2412/2512 21015KT 9999 BKN030
TEMPO 2413/2423 3000 SHRA BKN030TCU
PROB40
TEMPO 2416/2420 21020G30KT TSRA BKN030CB
TEMPO 2503/2508 4000 RA BKN013
TEMPO 2508/2512 3000 SHRA BKN015CB
PROB30
TEMPO 2508/2512 21020G33KT TSRA



MET'MAP, your aeronautical weather chart ! - Copyright ORBIFLY December 2007 - Disclaimer

ORBIFLY MET'MAP TEAM :

Programming & Development : Alexandra Zaïnal
Concept & original design : Baudouin d'Aumeries
Assistance for programming : Marc-Olivier Méhu
Technical & hardware support : Manuel Goepfert

Contact : metmap@orbifly.com




SOURCES & CREDITS :

   NOAA